Time;durP1;ratioP1;P1;durP2;ratioP2;P2;SDS_P1;SDS_P2;PMS_P1;PMS_P2;Temp;Humidity;BMP_temperature;BMP_pressure;BME280_temperature;BME280_humidity;BME280_pressure;Samples;Min_cycle;Max_cycle;Signal;HPM_P1;HPM_P2
2022/07/11 00:02:13;;;;;;;2.42;1.20;;;;;;;14.44;64.46;100305.09;5016788;28;20083;-80
2022/07/11 00:04:40;;;;;;;3.03;1.58;;;;;;;14.43;64.36;100297.97;5034315;28;20406;-80
2022/07/11 00:07:06;;;;;;;2.88;1.20;;;;;;;14.44;64.33;100300.28;5016427;28;20039;-80
2022/07/11 00:09:32;;;;;;;2.53;1.10;;;;;;;14.48;63.91;100299.41;5016061;28;20064;-80
2022/07/11 00:11:58;;;;;;;1.63;1.05;;;;;;;14.46;63.69;100292.25;5016171;28;20025;-80
2022/07/11 00:14:23;;;;;;;1.63;0.95;;;;;;;14.42;64.16;100285.25;5015795;28;20064;-80
2022/07/11 00:16:50;;;;;;;1.20;1.10;;;;;;;14.39;64.49;100280.59;5015949;28;20057;-80
2022/07/11 00:19:16;;;;;;;1.20;0.80;;;;;;;14.41;64.23;100294.84;5015760;28;20045;-79
2022/07/11 00:21:42;;;;;;;3.60;1.23;;;;;;;14.42;64.28;100297.19;5016357;28;20061;-80
2022/07/11 00:24:07;;;;;;;1.40;1.08;;;;;;;14.43;64.19;100295.19;5030447;28;20482;-80
2022/07/11 00:26:36;;;;;;;1.80;0.77;;;;;;;14.44;64.14;100293.94;5015772;28;20120;-79
2022/07/11 00:29:03;;;;;;;1.40;1.00;;;;;;;14.53;64.33;100307.16;5033766;28;20116;-80
2022/07/11 00:31:29;;;;;;;2.30;1.00;;;;;;;14.48;64.06;100303.72;5033124;28;20037;-80
2022/07/11 00:33:55;;;;;;;2.03;1.00;;;;;;;14.49;64.00;100296.13;5016149;28;20106;-89
2022/07/11 00:36:21;;;;;;;1.75;1.10;;;;;;;14.56;64.13;100318.19;5032233;28;20030;-88
2022/07/11 00:38:47;;;;;;;2.88;0.90;;;;;;;14.55;64.25;100318.66;4997401;28;20402;-88
2022/07/11 00:41:13;;;;;;;3.08;0.90;;;;;;;14.53;64.36;100309.97;5015929;28;20026;-89
2022/07/11 00:43:39;;;;;;;1.58;0.90;;;;;;;14.56;64.05;100318.19;5028607;28;20571;-88
2022/07/11 00:46:06;;;;;;;2.25;0.85;;;;;;;14.59;63.75;100317.28;5013343;28;20030;-89
2022/07/11 00:48:32;;;;;;;2.22;0.98;;;;;;;14.56;63.97;100315.41;5030161;28;20068;-89
2022/07/11 00:51:02;;;;;;;1.02;0.90;;;;;;;14.56;64.42;100318.19;5032305;28;20069;-89
2022/07/11 00:53:28;;;;;;;1.05;0.80;;;;;;;14.47;64.64;100326.53;5029912;28;20037;-88
2022/07/11 00:55:54;;;;;;;3.20;0.90;;;;;;;14.44;65.19;100317.03;5030461;28;20613;-89
2022/07/11 00:58:19;;;;;;;1.60;1.10;;;;;;;14.41;64.92;100320.75;5030628;28;20410;-89
2022/07/11 01:00:45;;;;;;;1.60;1.05;;;;;;;14.36;65.28;100320.56;5016639;28;20040;-88
2022/07/11 01:03:11;;;;;;;2.58;0.90;;;;;;;14.43;65.24;100323.09;5029633;28;20050;-88
2022/07/11 01:05:37;;;;;;;1.33;1.02;;;;;;;14.40;65.40;100319.19;5013546;28;20076;-89
2022/07/11 01:08:03;;;;;;;1.67;0.93;;;;;;;14.38;65.39;100318.09;5028624;28;20033;-88
2022/07/11 01:10:28;;;;;;;2.33;1.08;;;;;;;14.33;65.37;100313.06;5011321;28;20026;-80
2022/07/11 01:12:54;;;;;;;2.97;1.00;;;;;;;14.32;65.41;100311.50;5027564;28;20627;-89
2022/07/11 01:15:20;;;;;;;1.40;0.90;;;;;;;14.32;65.17;100312.28;5032054;28;20409;-89
2022/07/11 01:17:45;;;;;;;1.45;1.00;;;;;;;14.30;65.68;100316.78;5029830;28;20033;-88
2022/07/11 01:20:11;;;;;;;2.90;1.08;;;;;;;14.29;65.24;100306.84;5031764;28;20504;-88
2022/07/11 01:22:41;;;;;;;3.00;1.15;;;;;;;14.30;65.09;100308.41;5029816;28;20032;-89
2022/07/11 01:25:07;;;;;;;3.03;1.25;;;;;;;14.28;65.08;100308.84;5029704;28;20530;-88
2022/07/11 01:27:32;;;;;;;2.40;1.08;;;;;;;14.28;63.95;100303.28;5031619;28;20121;-89
2022/07/11 01:29:58;;;;;;;2.17;1.00;;;;;;;14.27;63.72;100300.97;5031036;28;20402;-80
2022/07/11 01:32:24;;;;;;;4.40;1.50;;;;;;;14.30;63.84;100300.81;5029560;28;20025;-88
2022/07/11 01:34:49;;;;;;;1.15;0.90;;;;;;;14.29;64.02;100304.06;5030856;28;20165;-89
2022/07/11 01:37:15;;;;;;;3.85;1.55;;;;;;;14.26;64.02;100299.41;5030259;28;20040;-88
2022/07/11 01:39:41;;;;;;;2.78;1.27;;;;;;;14.27;63.99;100306.53;5027652;28;20045;-89
2022/07/11 01:42:06;;;;;;;2.50;1.05;;;;;;;14.22;64.09;100299.53;5029023;28;20041;-87
2022/07/11 01:44:32;;;;;;;1.85;1.10;;;;;;;14.13;64.70;100296.69;5030488;28;20025;-88
2022/07/11 01:46:57;;;;;;;4.10;1.27;;;;;;;14.20;64.21;100301.19;5013444;28;20029;-88
2022/07/11 01:49:23;;;;;;;2.60;1.20;;;;;;;14.13;64.93;100291.09;5031819;28;20041;-88
2022/07/11 01:51:49;;;;;;;3.13;1.20;;;;;;;14.14;64.70;100301.03;5030594;28;20029;-88
2022/07/11 01:54:14;;;;;;;1.77;1.00;;;;;;;14.09;64.93;100284.88;5031458;28;20087;-90
2022/07/11 01:56:40;;;;;;;1.65;1.05;;;;;;;14.05;65.07;100291.81;5025825;28;20068;-89
2022/07/11 01:59:06;;;;;;;2.05;1.00;;;;;;;14.06;65.46;100296.16;5029455;28;20044;-89
2022/07/11 02:01:31;;;;;;;2.70;1.20;;;;;;;14.07;65.95;100297.72;5030917;28;20391;-89
2022/07/11 02:03:58;;;;;;;3.85;1.23;;;;;;;14.02;65.13;100297.09;5030927;28;20054;-88
2022/07/11 02:06:24;;;;;;;2.67;1.10;;;;;;;13.98;65.68;100290.84;5013112;28;20034;-79
2022/07/11 02:08:49;;;;;;;2.35;1.33;;;;;;;13.97;65.98;100294.88;5029326;28;20079;-89
2022/07/11 02:11:15;;;;;;;1.70;1.15;;;;;;;13.92;66.87;100298.22;5031421;28;20129;-80
2022/07/11 02:13:40;;;;;;;3.25;1.20;;;;;;;13.88;66.77;100285.66;5029771;28;20116;-79
2022/07/11 02:16:06;;;;;;;1.50;1.15;;;;;;;13.82;66.84;100293.06;5030498;28;20040;-80
2022/07/11 02:18:34;;;;;;;1.10;1.00;;;;;;;13.80;67.23;100307.44;5029280;28;20128;-80
2022/07/11 02:21:00;;;;;;;1.35;1.00;;;;;;;13.72;67.42;100289.41;5003087;28;20029;-80
2022/07/11 02:23:26;;;;;;;3.05;1.30;;;;;;;13.64;67.15;100295.69;5011654;28;20528;-80
2022/07/11 02:25:53;;;;;;;2.40;1.17;;;;;;;13.63;67.40;100303.25;5013421;28;20041;-88
2022/07/11 02:28:19;;;;;;;3.38;1.30;;;;;;;13.62;68.02;100309.31;5010919;28;20053;-79
2022/07/11 02:30:45;;;;;;;0.98;0.90;;;;;;;13.60;67.84;100301.38;5013050;28;20495;-79
2022/07/11 02:33:15;;;;;;;1.92;1.38;;;;;;;13.61;67.44;100304.94;5011938;28;20029;-79
2022/07/11 02:35:42;;;;;;;2.38;1.13;;;;;;;13.56;67.67;100306.28;5030094;28;20044;-79
2022/07/11 02:38:07;;;;;;;2.92;1.17;;;;;;;13.49;68.32;100304.53;5027828;28;20045;-79
2022/07/11 02:40:33;;;;;;;2.00;0.90;;;;;;;13.44;68.48;100298.75;5027515;28;20044;-79
2022/07/11 02:42:58;;;;;;;3.10;1.25;;;;;;;13.35;68.34;100309.81;5013552;28;20022;-79
2022/07/11 02:45:24;;;;;;;2.15;1.23;;;;;;;13.35;67.82;100309.81;5029100;28;20471;-89
2022/07/11 02:47:50;;;;;;;1.75;1.13;;;;;;;13.31;68.33;100318.28;5029917;28;20391;-80
2022/07/11 02:50:15;;;;;;;2.40;1.20;;;;;;;13.28;69.43;100321.19;5030286;28;20033;-80
2022/07/11 02:52:41;;;;;;;1.95;1.20;;;;;;;13.25;70.90;100322.09;5027739;28;20051;-80
2022/07/11 02:55:08;;;;;;;3.03;1.38;;;;;;;13.24;71.54;100326.09;4995947;28;20045;-79
2022/07/11 02:57:35;;;;;;;2.13;1.30;;;;;;;13.21;73.56;100321.44;5011842;28;20033;-80
2022/07/11 03:00:02;;;;;;;4.10;1.40;;;;;;;13.15;74.15;100312.06;5016752;28;20120;-80
2022/07/11 03:02:27;;;;;;;2.25;1.20;;;;;;;13.15;74.25;100314.84;5028645;28;20465;-79
2022/07/11 03:04:53;;;;;;;2.00;1.35;;;;;;;13.08;74.13;100319.41;5011002;28;20044;-79
2022/07/11 03:07:18;;;;;;;3.03;1.20;;;;;;;13.00;74.53;100320.88;5028598;28;20033;-88
2022/07/11 03:09:44;;;;;;;2.47;1.17;;;;;;;12.97;75.56;100318.97;5030896;28;20947;-88
2022/07/11 03:12:09;;;;;;;2.08;1.27;;;;;;;12.92;74.29;100316.75;5028361;28;20037;-89
2022/07/11 03:14:35;;;;;;;2.22;1.30;;;;;;;12.93;73.53;100321.09;5028591;28;20128;-89
2022/07/11 03:17:00;;;;;;;2.70;1.30;;;;;;;12.88;72.85;100323.66;4995999;28;20030;-88
2022/07/11 03:19:26;;;;;;;5.85;1.40;;;;;;;12.83;73.82;100325.00;5012126;28;20053;-89
2022/07/11 03:21:52;;;;;;;1.23;1.10;;;;;;;12.84;73.63;100321.00;5010449;28;20044;-88
2022/07/11 03:24:17;;;;;;;2.58;1.40;;;;;;;12.83;74.17;100329.78;5029777;28;20037;-80
2022/07/11 03:26:43;;;;;;;2.50;1.50;;;;;;;12.78;75.36;100322.00;5029752;28;20041;-89
2022/07/11 03:29:08;;;;;;;2.75;1.30;;;;;;;12.77;76.52;100315.66;5027941;28;20033;-89
2022/07/11 03:31:34;;;;;;;3.30;1.50;;;;;;;12.80;76.37;100303.63;5027202;28;20040;-89
2022/07/11 03:34:00;;;;;;;4.97;1.30;;;;;;;12.83;77.10;100318.63;5011685;28;20041;-88
2022/07/11 03:36:26;;;;;;;2.28;1.40;;;;;;;12.83;76.26;100325.00;5029804;28;20037;-88
2022/07/11 03:38:52;;;;;;;3.65;1.25;;;;;;;12.82;76.50;100320.63;5010210;28;20045;-89
2022/07/11 03:41:17;;;;;;;3.05;1.00;;;;;;;12.82;76.41;100322.66;5028773;28;20029;-89
2022/07/11 03:43:43;;;;;;;1.73;1.27;;;;;;;12.77;75.66;100314.88;5026413;28;20065;-88
2022/07/11 03:46:09;;;;;;;3.25;1.60;;;;;;;12.72;79.87;100318.97;5011277;28;20034;-80
2022/07/11 03:48:35;;;;;;;3.08;1.50;;;;;;;12.75;79.52;100320.09;5011176;28;20031;-78
2022/07/11 03:51:00;;;;;;;2.15;1.30;;;;;;;12.80;81.65;100320.31;5029318;28;20029;-78
2022/07/11 03:53:25;;;;;;;3.85;1.90;;;;;;;12.81;86.42;100316.31;5028082;28;20112;-78
2022/07/11 03:55:51;;;;;;;3.20;1.48;;;;;;;12.81;86.59;100318.31;5027540;28;20033;-79
2022/07/11 03:58:16;;;;;;;2.75;1.58;;;;;;;12.78;86.75;100325.53;5030049;28;20030;-78
2022/07/11 04:00:42;;;;;;;4.05;1.60;;;;;;;12.84;87.67;100323.00;5027426;28;20065;-78
2022/07/11 04:03:07;;;;;;;2.40;1.50;;;;;;;12.89;87.04;100328.78;5011222;28;20041;-79
2022/07/11 04:05:33;;;;;;;2.00;1.50;;;;;;;12.90;86.74;100319.19;5010811;28;20033;-87
2022/07/11 04:07:58;;;;;;;2.72;1.73;;;;;;;12.92;86.30;100325.09;5029154;28;20025;-87
2022/07/11 04:10:25;;;;;;;3.45;1.58;;;;;;;12.84;86.83;100318.19;5030339;28;20037;-87
2022/07/11 04:12:50;;;;;;;3.58;1.52;;;;;;;12.76;86.36;100314.09;5030723;28;20108;-87
2022/07/11 04:15:16;;;;;;;2.92;1.60;;;;;;;12.75;86.81;100320.09;5016088;28;20427;-88
2022/07/11 04:17:41;;;;;;;3.28;1.70;;;;;;;12.67;88.02;100321.53;5033753;28;20044;-87
2022/07/11 04:20:07;;;;;;;5.18;2.20;;;;;;;12.63;87.99;100321.63;5000182;28;20086;-88
2022/07/11 04:22:33;;;;;;;4.18;1.60;;;;;;;12.59;88.56;100315.41;5033024;28;20088;-87
2022/07/11 04:24:58;;;;;;;3.08;1.40;;;;;;;12.53;89.11;100317.19;5033856;28;20057;-87
2022/07/11 04:27:25;;;;;;;2.97;1.80;;;;;;;12.61;86.20;100326.88;5033808;28;20033;-88
2022/07/11 04:29:53;;;;;;;3.20;1.55;;;;;;;12.77;79.61;100326.78;5033360;28;20037;-87
2022/07/11 04:32:19;;;;;;;3.60;1.50;;;;;;;13.01;73.10;100332.78;5033830;28;20037;-88
2022/07/11 04:34:45;;;;;;;4.47;1.65;;;;;;;13.08;73.43;100324.19;5033148;28;20064;-88
2022/07/11 04:37:10;;;;;;;2.78;1.60;;;;;;;13.04;82.50;100335.47;5034726;28;20061;-88
2022/07/11 04:39:36;;;;;;;2.97;2.10;;;;;;;13.01;83.00;100322.44;5015187;28;20033;-85
2022/07/11 04:42:01;;;;;;;5.43;1.90;;;;;;;12.96;83.68;100330.56;5033697;28;20045;-79
2022/07/11 04:44:28;;;;;;;4.25;1.73;;;;;;;12.82;85.86;100326.19;5014216;28;20057;-79
2022/07/11 04:46:54;;;;;;;3.55;1.60;;;;;;;12.87;85.08;100342.34;5011972;28;20391;-79
2022/07/11 04:49:19;;;;;;;2.50;1.52;;;;;;;12.82;85.61;100334.56;5015635;28;20048;-79
2022/07/11 04:51:45;;;;;;;5.78;2.38;;;;;;;12.86;84.54;100346.38;5033374;28;20074;-79
2022/07/11 04:54:10;;;;;;;5.00;2.17;;;;;;;13.01;83.27;100346.72;5029508;28;20076;-79
2022/07/11 04:56:37;;;;;;;2.55;1.60;;;;;;;13.06;82.68;100335.78;5033056;28;20045;-79
2022/07/11 04:59:03;;;;;;;2.60;1.98;;;;;;;13.22;81.75;100334.13;5033987;28;20592;-79
2022/07/11 05:01:29;;;;;;;3.20;1.80;;;;;;;13.27;81.59;100348.25;5005380;28;20057;-88
2022/07/11 05:03:55;;;;;;;4.95;1.80;;;;;;;13.34;81.19;100358.41;5024678;28;20038;-88
2022/07/11 05:06:20;;;;;;;6.53;1.70;;;;;;;13.38;82.24;100350.72;5033101;28;20137;-89
2022/07/11 05:08:46;;;;;;;2.58;1.70;;;;;;;13.41;82.15;100352.59;5015002;28;20033;-88
2022/07/11 05:11:11;;;;;;;2.97;1.50;;;;;;;13.34;81.46;100342.47;5032952;28;20075;-88
2022/07/11 05:13:37;;;;;;;3.60;1.60;;;;;;;13.45;80.44;100342.91;5008951;28;20032;-88
2022/07/11 05:16:03;;;;;;;3.75;1.63;;;;;;;13.54;80.70;100339.44;5012983;28;20048;-88
2022/07/11 05:18:29;;;;;;;2.53;1.40;;;;;;;13.65;80.11;100345.41;5031899;28;20041;-88
2022/07/11 05:20:54;;;;;;;3.25;1.45;;;;;;;13.78;79.83;100343.38;5032184;28;20057;-89
2022/07/11 05:23:20;;;;;;;3.30;1.55;;;;;;;13.95;79.23;100358.69;5015959;28;20025;-90
2022/07/11 05:25:45;;;;;;;4.32;1.50;;;;;;;14.14;78.00;100353.25;5031156;28;20037;-90
2022/07/11 05:28:11;;;;;;;4.40;1.67;;;;;;;14.36;78.06;100354.81;5032519;28;20498;-89
2022/07/11 05:30:36;;;;;;;4.18;1.55;;;;;;;14.68;70.96;100352.88;5032298;28;20042;-89
2022/07/11 05:33:02;;;;;;;2.88;1.45;;;;;;;14.89;65.77;100350.00;5028379;28;20029;-90
2022/07/11 05:35:28;;;;;;;3.50;1.55;;;;;;;15.25;62.75;100356.94;4996541;28;20534;-90
2022/07/11 05:37:53;;;;;;;3.03;1.33;;;;;;;15.52;61.94;100356.28;5030984;28;20099;-89
2022/07/11 05:40:19;;;;;;;2.83;1.50;;;;;;;15.70;64.21;100357.09;5030483;28;20025;-79
2022/07/11 05:42:45;;;;;;;4.10;1.60;;;;;;;15.86;64.17;100354.00;5029180;28;20034;-80
2022/07/11 05:45:11;;;;;;;5.03;2.05;;;;;;;16.16;63.95;100357.09;5030513;28;20048;-80
2022/07/11 05:47:36;;;;;;;6.10;1.70;;;;;;;16.35;64.10;100358.63;5027607;28;20479;-80
2022/07/11 05:50:03;;;;;;;3.33;1.58;;;;;;;16.68;62.28;100353.94;5029478;28;20057;-80
2022/07/11 05:52:28;;;;;;;2.92;1.23;;;;;;;17.05;59.76;100359.41;5025833;28;20036;-80
2022/07/11 05:54:54;;;;;;;5.28;1.60;;;;;;;17.20;58.60;100363.06;5031676;28;20029;-89
2022/07/11 05:57:19;;;;;;;3.30;1.33;;;;;;;17.19;59.96;100367.88;5026785;28;20445;-89
2022/07/11 05:59:45;;;;;;;3.13;1.35;;;;;;;17.07;59.42;100368.09;5028356;28;20045;-80
2022/07/11 06:02:11;;;;;;;4.35;1.52;;;;;;;17.08;60.53;100376.03;5013971;28;20056;-80
2022/07/11 06:04:36;;;;;;;5.80;1.67;;;;;;;17.07;61.10;100379.31;4997467;28;20447;-80
2022/07/11 06:07:02;;;;;;;4.85;1.63;;;;;;;17.00;61.34;100376.84;5031113;28;20038;-80
2022/07/11 06:09:28;;;;;;;3.90;1.35;;;;;;;16.75;61.31;100383.63;5013789;28;20039;-80
2022/07/11 06:11:53;;;;;;;3.15;1.52;;;;;;;16.75;61.74;100381.59;5013452;28;20041;-80
2022/07/11 06:14:19;;;;;;;1.70;1.20;;;;;;;16.87;61.90;100381.88;5014228;28;20032;-80
2022/07/11 06:16:44;;;;;;;2.80;1.40;;;;;;;16.80;60.91;100383.00;5030719;28;20037;-89
2022/07/11 06:19:10;;;;;;;2.53;1.40;;;;;;;16.90;63.04;100394.97;5013884;28;20029;-80
2022/07/11 06:21:36;;;;;;;4.25;1.33;;;;;;;16.93;64.82;100397.59;5031677;28;20531;-80
2022/07/11 06:24:01;;;;;;;6.97;1.50;;;;;;;16.96;63.62;100395.84;5031512;28;20024;-80
2022/07/11 06:26:27;;;;;;;3.13;1.45;;;;;;;16.98;63.23;100401.78;5031828;28;20089;-80
2022/07/11 06:28:52;;;;;;;3.55;1.50;;;;;;;17.05;63.71;100398.63;5031355;28;20372;-80
2022/07/11 06:31:18;;;;;;;3.90;1.33;;;;;;;16.92;60.80;100389.66;5031299;28;20116;-80
2022/07/11 06:33:43;;;;;;;4.65;1.80;;;;;;;16.78;57.22;100391.84;5031294;28;20117;-88
2022/07/11 06:36:09;;;;;;;3.45;1.30;;;;;;;16.57;57.66;100384.47;5013086;28;20033;-88
2022/07/11 06:38:35;;;;;;;2.85;1.13;;;;;;;16.51;58.47;100383.50;5031199;28;20045;-89
2022/07/11 06:41:01;;;;;;;2.38;1.40;;;;;;;16.43;58.81;100381.47;5031166;28;20026;-88
2022/07/11 06:43:30;;;;;;;3.78;1.40;;;;;;;16.40;59.50;100393.63;5030590;28;20364;-89
2022/07/11 06:45:56;;;;;;;3.95;1.48;;;;;;;16.41;59.39;100390.38;5013146;28;20727;-88
2022/07/11 06:48:21;;;;;;;2.35;1.25;;;;;;;16.42;58.95;100385.53;5031420;28;20033;-89
2022/07/11 06:50:47;;;;;;;2.35;1.30;;;;;;;16.53;58.94;100392.22;5031102;28;20042;-89
2022/07/11 06:53:13;;;;;;;2.90;1.30;;;;;;;16.63;59.26;100393.75;5031361;28;20104;-89
2022/07/11 06:55:39;;;;;;;3.25;1.20;;;;;;;16.72;59.23;100396.56;5030671;28;20029;-80
2022/07/11 06:58:05;;;;;;;2.58;1.33;;;;;;;16.76;58.14;100399.97;5012992;28;20037;-80
2022/07/11 07:00:31;;;;;;;2.72;1.25;;;;;;;16.84;58.04;100394.81;5026846;28;20033;-80
2022/07/11 07:02:57;;;;;;;3.97;1.35;;;;;;;16.99;58.04;100395.69;4993236;28;20557;-80
2022/07/11 07:05:24;;;;;;;2.95;1.30;;;;;;;17.23;57.67;100393.72;5011525;28;20041;-80
2022/07/11 07:07:50;;;;;;;4.28;1.30;;;;;;;17.42;57.06;100394.44;4993554;28;20064;-80
2022/07/11 07:10:16;;;;;;;3.28;1.30;;;;;;;17.66;55.44;100402.88;5015315;28;20025;-80
2022/07/11 07:12:41;;;;;;;2.95;1.17;;;;;;;18.07;54.75;100398.41;5029218;28;20029;-80
2022/07/11 07:15:08;;;;;;;3.08;1.55;;;;;;;18.19;53.51;100394.56;5013177;28;20095;-89
2022/07/11 07:17:34;;;;;;;4.15;1.30;;;;;;;18.42;52.48;100390.91;5031054;28;20466;-89
2022/07/11 07:20:00;;;;;;;2.85;1.30;;;;;;;18.94;50.55;100380.84;5030639;28;20029;-88
2022/07/11 07:22:25;;;;;;;5.15;1.42;;;;;;;19.11;50.02;100383.94;5031048;28;20036;-88
2022/07/11 07:24:51;;;;;;;3.83;1.08;;;;;;;19.60;49.81;100385.97;5030557;28;20037;-89
2022/07/11 07:27:17;;;;;;;2.65;1.33;;;;;;;19.79;48.91;100392.09;5030901;28;20029;-87
2022/07/11 07:29:42;;;;;;;2.40;1.13;;;;;;;19.94;48.81;100375.91;5030211;28;20467;-86
2022/07/11 07:32:08;;;;;;;3.67;1.25;;;;;;;20.35;47.38;100388.69;5030961;28;20065;-78
2022/07/11 07:34:33;;;;;;;3.08;1.10;;;;;;;20.62;46.88;100381.81;5030771;28;20042;-78
2022/07/11 07:36:59;;;;;;;4.05;0.82;;;;;;;20.61;45.58;100385.91;5030580;28;20099;-78
2022/07/11 07:39:25;;;;;;;2.88;0.93;;;;;;;20.55;47.12;100385.06;5030703;28;20029;-78
2022/07/11 07:41:51;;;;;;;3.30;1.42;;;;;;;20.89;46.95;100383.31;5030420;28;20022;-78
2022/07/11 07:44:16;;;;;;;5.85;1.20;;;;;;;20.80;46.34;100375.81;5030370;28;20585;-78
2022/07/11 07:46:42;;;;;;;2.33;1.00;;;;;;;21.17;45.78;100378.72;5013050;28;20403;-78
2022/07/11 07:49:07;;;;;;;3.67;1.10;;;;;;;21.43;45.80;100384.28;5034694;28;20438;-78
2022/07/11 07:51:33;;;;;;;7.55;1.50;;;;;;;21.36;46.12;100373.44;5034480;28;20112;-78
2022/07/11 07:53:58;;;;;;;3.40;1.70;;;;;;;21.36;46.07;100373.44;5034195;28;20030;-87
2022/07/11 07:56:24;;;;;;;2.85;1.40;;;;;;;21.66;44.98;100366.19;5034435;28;20402;-86
2022/07/11 07:58:51;;;;;;;2.90;1.20;;;;;;;21.86;43.94;100362.41;5032753;28;20026;-85
2022/07/11 08:01:35;;;;;;;2.40;1.05;;;;;;;21.87;44.35;100361.16;5006807;28;20055;-87
2022/07/11 08:04:05;;;;;;;4.10;1.30;;;;;;;21.58;43.33;100367.16;5034005;28;20060;-87
2022/07/11 08:06:31;;;;;;;2.65;1.00;;;;;;;21.48;44.74;100363.75;5033754;28;20132;-87
2022/07/11 08:08:57;;;;;;;6.13;1.55;;;;;;;21.67;43.46;100361.31;5034051;28;20076;-87
2022/07/11 08:11:22;;;;;;;3.00;1.10;;;;;;;21.83;43.14;100360.63;5034269;28;20033;-86
2022/07/11 08:13:49;;;;;;;4.40;1.30;;;;;;;21.81;43.44;100351.88;5033621;28;20032;-78
2022/07/11 08:16:15;;;;;;;3.13;1.10;;;;;;;22.14;43.09;100357.66;5033262;28;20040;-78
2022/07/11 08:18:40;;;;;;;3.00;1.38;;;;;;;22.19;43.45;100354.09;5031309;28;20049;-79
2022/07/11 08:21:06;;;;;;;3.40;1.48;;;;;;;22.37;42.63;100347.19;5032393;28;20033;-78
2022/07/11 08:23:31;;;;;;;2.58;1.40;;;;;;;22.61;41.47;100349.50;5031426;28;20037;-78
2022/07/11 08:25:57;;;;;;;4.18;1.30;;;;;;;22.98;40.01;100343.63;5030707;28;20494;-79
2022/07/11 08:28:23;;;;;;;3.30;1.48;;;;;;;22.98;40.54;100327.44;5033346;28;20479;-78
2022/07/11 08:30:48;;;;;;;6.95;1.92;;;;;;;22.53;40.81;100349.25;5033360;28;20042;-78
2022/07/11 08:33:14;;;;;;;4.50;1.30;;;;;;;22.56;41.10;100342.59;5031514;28;20048;-78
2022/07/11 08:35:40;;;;;;;4.40;1.35;;;;;;;22.72;41.37;100335.44;5013233;28;20052;-79
2022/07/11 08:38:06;;;;;;;3.92;1.40;;;;;;;22.93;39.75;100330.28;5031504;28;20037;-78
2022/07/11 08:40:31;;;;;;;4.18;1.48;;;;;;;22.95;38.61;100336.19;5030475;28;20099;-79
2022/07/11 08:42:58;;;;;;;2.60;1.10;;;;;;;23.33;39.47;100334.59;5013707;28;20087;-79
2022/07/11 08:45:29;;;;;;;3.38;1.35;;;;;;;22.87;39.58;100333.09;5030392;28;20037;-79
2022/07/11 08:47:54;;;;;;;3.88;1.10;;;;;;;23.20;40.35;100329.47;5012544;28;20048;-79
2022/07/11 08:50:21;;;;;;;2.67;1.05;;;;;;;23.63;39.13;100335.53;5032953;28;20041;-86
2022/07/11 08:52:47;;;;;;;3.47;1.42;;;;;;;23.28;39.13;100329.72;5030841;28;20506;-86
2022/07/11 08:55:12;;;;;;;3.72;1.30;;;;;;;23.70;38.78;100335.00;5030813;28;20048;-87
2022/07/11 08:57:38;;;;;;;3.33;1.35;;;;;;;23.70;37.97;100323.66;5023586;28;20041;-84
2022/07/11 09:00:06;;;;;;;2.92;1.20;;;;;;;23.16;39.84;100343.88;5022180;28;20061;-85
2022/07/11 09:02:33;;;;;;;3.17;1.50;;;;;;;22.93;40.63;100335.94;5030081;28;20048;-88
2022/07/11 09:05:00;;;;;;;3.38;1.30;;;;;;;23.02;39.86;100330.78;5015153;28;20034;-89
2022/07/11 09:07:26;;;;;;;5.30;1.50;;;;;;;22.96;39.77;100329.25;5026734;28;20124;-80
2022/07/11 09:09:52;;;;;;;3.05;1.10;;;;;;;23.54;40.00;100328.09;5027249;28;20045;-90
2022/07/11 09:12:17;;;;;;;3.13;1.10;;;;;;;24.09;41.57;100329.94;5013323;28;20057;-90
2022/07/11 09:14:48;;;;;;;4.25;1.10;;;;;;;24.74;41.30;100329.25;5013498;28;20452;-89
2022/07/11 09:17:14;;;;;;;4.85;1.10;;;;;;;24.88;36.92;100321.66;5008943;28;20483;-89
2022/07/11 09:19:39;;;;;;;2.65;1.00;;;;;;;24.69;38.64;100327.22;5024042;28;20053;-90
2022/07/11 09:25:19;;;;;;;2.70;1.25;;;;;;;22.89;40.09;100336.19;5024667;28;20446;-89
2022/07/11 09:27:50;;;;;;;3.63;1.20;;;;;;;22.49;40.66;100353.63;5014948;28;20041;-83
2022/07/11 09:30:23;;;;;;;3.97;1.58;;;;;;;21.96;41.68;100349.63;5030541;28;20049;-89
2022/07/11 09:32:54;;;;;;;2.92;1.25;;;;;;;21.21;43.44;100356.69;5030797;28;20025;-90
2022/07/11 09:35:20;;;;;;;3.50;1.25;;;;;;;21.11;44.40;100352.47;5029662;28;20388;-90
2022/07/11 09:37:45;;;;;;;2.92;1.10;;;;;;;20.89;44.98;100355.13;5031177;28;20037;-90
2022/07/11 09:40:12;;;;;;;2.17;1.10;;;;;;;20.87;44.60;100349.19;5012161;28;20525;-90
2022/07/11 09:42:52;;;;;;;3.50;1.50;;;;;;;20.72;45.22;100354.22;5031029;28;20057;-90
2022/07/11 09:45:19;;;;;;;3.03;1.10;;;;;;;20.71;45.19;100359.06;5022951;28;20155;-80
2022/07/11 09:47:49;;;;;;;2.30;1.25;;;;;;;20.69;45.84;100349.56;5012912;28;20068;-89
2022/07/11 09:50:25;;;;;;;3.05;1.30;;;;;;;20.47;46.50;100350.91;5011713;28;20084;-90
2022/07/11 09:53:09;;;;;;;2.28;1.20;;;;;;;20.44;47.67;100354.72;5029837;28;20092;-90
2022/07/11 09:55:37;;;;;;;3.60;1.30;;;;;;;20.43;47.33;100356.00;5030026;28;20152;-90
2022/07/11 09:58:07;;;;;;;2.35;1.30;;;;;;;20.45;47.61;100353.47;5012513;28;20032;-88
2022/07/11 10:00:33;;;;;;;3.65;1.30;;;;;;;20.35;48.28;100362.56;5011376;28;20053;-89
2022/07/11 10:02:59;;;;;;;3.65;1.40;;;;;;;20.50;47.89;100359.66;5028001;28;20041;-89
2022/07/11 10:05:25;;;;;;;3.60;1.63;;;;;;;20.69;48.16;100358.81;5029942;28;20537;-91
2022/07/11 10:07:51;;;;;;;3.58;1.25;;;;;;;20.87;46.70;100352.03;5029985;28;20041;-82
2022/07/11 10:10:17;;;;;;;3.83;1.35;;;;;;;20.87;46.24;100349.19;5028936;28;20030;-82
2022/07/11 10:12:45;;;;;;;2.35;1.10;;;;;;;20.78;47.35;100353.00;5030029;28;20084;-82
2022/07/11 10:15:11;;;;;;;3.30;1.50;;;;;;;20.74;47.17;100346.03;5029417;28;20135;-82
2022/07/11 10:17:48;;;;;;;3.17;1.40;;;;;;;21.03;45.88;100350.63;5009330;28;20103;-81
2022/07/11 10:20:25;;;;;;;2.17;1.08;;;;;;;20.92;44.83;100345.66;5025966;28;20491;-82
2022/07/11 10:23:09;;;;;;;1.80;1.20;;;;;;;20.87;44.32;100346.38;5029623;28;20042;-81
2022/07/11 10:25:46;;;;;;;2.30;1.35;;;;;;;20.85;44.63;100346.13;5004269;28;20030;-81
2022/07/11 10:28:20;;;;;;;1.85;1.15;;;;;;;20.71;46.06;100336.53;5003629;28;20084;-82
2022/07/11 10:30:47;;;;;;;4.88;3.10;;;;;;;21.24;45.86;100338.75;5024788;28;20084;-82
2022/07/11 10:33:14;;;;;;;3.67;1.50;;;;;;;21.75;46.17;100328.50;5010105;28;20084;-82
2022/07/11 10:35:42;;;;;;;4.40;1.35;;;;;;;21.92;43.20;100326.50;5012368;28;20040;-82
2022/07/11 10:38:07;;;;;;;4.40;1.30;;;;;;;22.16;43.28;100332.47;5010265;28;20087;-82
2022/07/11 10:40:45;;;;;;;2.28;0.95;;;;;;;22.14;42.91;100326.59;5029600;28;20033;-80
2022/07/11 10:43:25;;;;;;;2.72;1.17;;;;;;;22.12;42.49;100317.84;5029349;28;20049;-80
2022/07/11 10:46:00;;;;;;;3.13;1.30;;;;;;;22.05;42.57;100321.16;5012044;28;20072;-88
2022/07/11 10:48:28;;;;;;;2.45;1.17;;;;;;;22.19;42.36;100314.53;4995138;28;20103;-91
2022/07/11 10:51:03;;;;;;;2.47;1.30;;;;;;;21.94;41.68;100314.72;5012103;28;20033;-90
2022/07/11 10:53:33;;;;;;;2.85;1.02;;;;;;;22.08;43.22;100325.78;5011651;28;20084;-90
2022/07/11 10:56:07;;;;;;;3.15;1.38;;;;;;;21.82;43.00;100320.31;5029609;28;20041;-91
2022/07/11 10:58:33;;;;;;;2.15;1.05;;;;;;;21.68;43.30;100309.19;5028623;28;20107;-91
2022/07/11 11:01:16;;;;;;;2.22;1.17;;;;;;;21.68;43.22;100314.84;5029215;28;20526;-80
2022/07/11 11:03:43;;;;;;;3.35;1.00;;;;;;;21.60;44.68;100308.13;5005981;28;20041;-81
2022/07/11 11:06:09;;;;;;;3.42;1.17;;;;;;;21.42;44.49;100308.56;5029297;28;20045;-80
2022/07/11 11:08:39;;;;;;;2.67;1.23;;;;;;;21.29;44.92;100306.19;5010808;28;20037;-80
2022/07/11 11:11:23;;;;;;;2.50;1.38;;;;;;;21.54;43.87;100307.34;5029186;28;20041;-80
2022/07/11 11:14:26;;;;;;;2.03;1.10;;;;;;;21.18;43.73;100306.91;5027785;28;20060;-80
2022/07/11 11:16:52;;;;;;;3.67;1.20;;;;;;;21.47;43.23;100300.16;5029211;28;20140;-80
2022/07/11 11:19:48;;;;;;;2.47;1.33;;;;;;;21.95;45.11;100291.63;5027305;28;20629;-80
2022/07/11 11:22:15;;;;;;;3.67;1.40;;;;;;;22.75;42.82;100284.28;5009153;28;20503;-80
2022/07/11 11:24:46;;;;;;;1.55;1.20;;;;;;;23.48;41.89;100284.13;5008062;28;20038;-80
2022/07/11 11:27:22;;;;;;;2.17;0.95;;;;;;;23.74;40.61;100283.78;5016729;28;20069;-80